sensor_id;sensor_type;location;lat;lon;timestamp;P1;durP1;ratioP1;P2;durP2;ratioP2
16033;SDS011;8121;51.418;6.998;2023-05-10T00:08:05;2.97;;;2.57;;
16033;SDS011;8121;51.418;6.998;2023-05-10T00:18:14;3.63;;;3.10;;
16033;SDS011;8121;51.418;6.998;2023-05-10T00:28:18;3.73;;;3.40;;
16033;SDS011;8121;51.418;6.998;2023-05-10T00:38:23;3.40;;;3.10;;
16033;SDS011;8121;51.418;6.998;2023-05-10T00:48:28;3.77;;;3.37;;
16033;SDS011;8121;51.418;6.998;2023-05-10T00:58:32;5.10;;;4.60;;
16033;SDS011;8121;51.418;6.998;2023-05-10T01:08:35;5.63;;;5.13;;
16033;SDS011;8121;51.418;6.998;2023-05-10T01:18:40;3.40;;;3.13;;
16033;SDS011;8121;51.418;6.998;2023-05-10T01:39:20;3.73;;;3.00;;
16033;SDS011;8121;51.418;6.998;2023-05-10T01:49:32;7.97;;;5.17;;
16033;SDS011;8121;51.418;6.998;2023-05-10T01:59:42;4.10;;;3.70;;
16033;SDS011;8121;51.418;6.998;2023-05-10T02:09:45;4.40;;;3.97;;
16033;SDS011;8121;51.418;6.998;2023-05-10T02:19:56;6.23;;;4.50;;
16033;SDS011;8121;51.418;6.998;2023-05-10T02:30:01;4.30;;;3.90;;
16033;SDS011;8121;51.418;6.998;2023-05-10T02:40:11;4.43;;;3.90;;
16033;SDS011;8121;51.418;6.998;2023-05-10T02:50:15;6.13;;;4.83;;
16033;SDS011;8121;51.418;6.998;2023-05-10T03:00:18;4.30;;;3.50;;
16033;SDS011;8121;51.418;6.998;2023-05-10T03:10:41;6.43;;;5.20;;
16033;SDS011;8121;51.418;6.998;2023-05-10T03:21:04;4.30;;;3.20;;
16033;SDS011;8121;51.418;6.998;2023-05-10T03:31:15;5.70;;;5.10;;
16033;SDS011;8121;51.418;6.998;2023-05-10T03:41:23;4.13;;;3.73;;
16033;SDS011;8121;51.418;6.998;2023-05-10T03:51:31;7.20;;;5.83;;
16033;SDS011;8121;51.418;6.998;2023-05-10T04:01:42;8.27;;;6.10;;
16033;SDS011;8121;51.418;6.998;2023-05-10T04:11:47;11.33;;;6.00;;
16033;SDS011;8121;51.418;6.998;2023-05-10T04:22:05;7.97;;;5.40;;
16033;SDS011;8121;51.418;6.998;2023-05-10T04:32:09;11.03;;;7.30;;
16033;SDS011;8121;51.418;6.998;2023-05-10T04:42:20;16.00;;;9.90;;
16033;SDS011;8121;51.418;6.998;2023-05-10T04:52:25;17.13;;;9.63;;
16033;SDS011;8121;51.418;6.998;2023-05-10T05:02:36;23.33;;;12.43;;
16033;SDS011;8121;51.418;6.998;2023-05-10T05:12:41;24.90;;;13.97;;
16033;SDS011;8121;51.418;6.998;2023-05-10T05:22:50;28.57;;;13.30;;
16033;SDS011;8121;51.418;6.998;2023-05-10T05:32:57;15.57;;;9.97;;
16033;SDS011;8121;51.418;6.998;2023-05-10T05:43:06;18.00;;;11.50;;
16033;SDS011;8121;51.418;6.998;2023-05-10T05:53:08;11.80;;;7.40;;
16033;SDS011;8121;51.418;6.998;2023-05-10T06:03:11;19.30;;;10.53;;
16033;SDS011;8121;51.418;6.998;2023-05-10T06:13:13;17.63;;;10.50;;
16033;SDS011;8121;51.418;6.998;2023-05-10T06:23:16;22.43;;;10.57;;
16033;SDS011;8121;51.418;6.998;2023-05-10T06:33:17;11.30;;;7.50;;
16033;SDS011;8121;51.418;6.998;2023-05-10T06:43:22;26.67;;;13.10;;
16033;SDS011;8121;51.418;6.998;2023-05-10T06:53:24;22.30;;;10.07;;
16033;SDS011;8121;51.418;6.998;2023-05-10T07:03:27;11.10;;;6.73;;
16033;SDS011;8121;51.418;6.998;2023-05-10T07:13:29;21.97;;;11.07;;
16033;SDS011;8121;51.418;6.998;2023-05-10T07:23:33;16.13;;;7.20;;
16033;SDS011;8121;51.418;6.998;2023-05-10T07:33:35;11.00;;;6.60;;
16033;SDS011;8121;51.418;6.998;2023-05-10T07:43:37;24.70;;;12.67;;
16033;SDS011;8121;51.418;6.998;2023-05-10T07:53:39;26.60;;;13.10;;
16033;SDS011;8121;51.418;6.998;2023-05-10T08:03:43;13.60;;;7.63;;
16033;SDS011;8121;51.418;6.998;2023-05-10T08:13:44;9.47;;;6.07;;
16033;SDS011;8121;51.418;6.998;2023-05-10T08:23:47;5.80;;;3.90;;
16033;SDS011;8121;51.418;6.998;2023-05-10T08:33:49;8.07;;;4.83;;
16033;SDS011;8121;51.418;6.998;2023-05-10T08:43:53;6.30;;;4.13;;
16033;SDS011;8121;51.418;6.998;2023-05-10T08:53:57;9.77;;;5.50;;
16033;SDS011;8121;51.418;6.998;2023-05-10T09:04:00;7.73;;;4.73;;
16033;SDS011;8121;51.418;6.998;2023-05-10T09:14:02;13.70;;;6.93;;
16033;SDS011;8121;51.418;6.998;2023-05-10T09:24:06;18.30;;;10.33;;
16033;SDS011;8121;51.418;6.998;2023-05-10T09:34:08;23.77;;;13.17;;
16033;SDS011;8121;51.418;6.998;2023-05-10T09:44:11;17.83;;;9.93;;
16033;SDS011;8121;51.418;6.998;2023-05-10T09:54:14;17.50;;;9.33;;
16033;SDS011;8121;51.418;6.998;2023-05-10T10:04:18;8.53;;;6.90;;
16033;SDS011;8121;51.418;6.998;2023-05-10T10:14:21;22.80;;;11.47;;
16033;SDS011;8121;51.418;6.998;2023-05-10T10:24:26;12.37;;;8.13;;
16033;SDS011;8121;51.418;6.998;2023-05-10T10:34:29;8.83;;;6.70;;
16033;SDS011;8121;51.418;6.998;2023-05-10T10:44:42;6.80;;;5.67;;
16033;SDS011;8121;51.418;6.998;2023-05-10T10:54:49;13.60;;;6.73;;
16033;SDS011;8121;51.418;6.998;2023-05-10T11:04:54;11.60;;;8.20;;
16033;SDS011;8121;51.418;6.998;2023-05-10T11:14:56;7.93;;;5.40;;
16033;SDS011;8121;51.418;6.998;2023-05-10T11:25:00;8.97;;;4.30;;
16033;SDS011;8121;51.418;6.998;2023-05-10T11:35:06;11.73;;;7.83;;
16033;SDS011;8121;51.418;6.998;2023-05-10T11:45:10;5.93;;;3.70;;
16033;SDS011;8121;51.418;6.998;2023-05-10T11:55:12;7.50;;;5.70;;
16033;SDS011;8121;51.418;6.998;2023-05-10T12:05:15;3.50;;;3.20;;
16033;SDS011;8121;51.418;6.998;2023-05-10T12:15:19;4.13;;;3.73;;
16033;SDS011;8121;51.418;6.998;2023-05-10T12:25:23;5.57;;;4.60;;
16033;SDS011;8121;51.418;6.998;2023-05-10T12:35:26;10.10;;;6.83;;
16033;SDS011;8121;51.418;6.998;2023-05-10T12:45:29;3.50;;;3.20;;
16033;SDS011;8121;51.418;6.998;2023-05-10T12:55:32;2.70;;;2.50;;
16033;SDS011;8121;51.418;6.998;2023-05-10T13:05:35;3.03;;;2.73;;
16033;SDS011;8121;51.418;6.998;2023-05-10T13:15:37;4.57;;;3.77;;
16033;SDS011;8121;51.418;6.998;2023-05-10T13:25:40;6.03;;;4.03;;
16033;SDS011;8121;51.418;6.998;2023-05-10T13:35:42;5.33;;;2.57;;
16033;SDS011;8121;51.418;6.998;2023-05-10T13:45:45;2.20;;;2.00;;
16033;SDS011;8121;51.418;6.998;2023-05-10T13:55:47;3.50;;;2.30;;
16033;SDS011;8121;51.418;6.998;2023-05-10T14:05:50;2.80;;;1.30;;
16033;SDS011;8121;51.418;6.998;2023-05-10T14:15:52;4.20;;;3.90;;
16033;SDS011;8121;51.418;6.998;2023-05-10T14:25:55;6.80;;;4.30;;
16033;SDS011;8121;51.418;6.998;2023-05-10T14:35:57;6.57;;;3.93;;
16033;SDS011;8121;51.418;6.998;2023-05-10T14:46:01;6.87;;;4.90;;
16033;SDS011;8121;51.418;6.998;2023-05-10T14:56:03;5.80;;;4.30;;
16033;SDS011;8121;51.418;6.998;2023-05-10T15:06:07;3.37;;;3.10;;
16033;SDS011;8121;51.418;6.998;2023-05-10T15:16:18;4.37;;;3.70;;
16033;SDS011;8121;51.418;6.998;2023-05-10T15:26:56;10.80;;;7.67;;
16033;SDS011;8121;51.418;6.998;2023-05-10T15:36:58;7.37;;;5.13;;
16033;SDS011;8121;51.418;6.998;2023-05-10T15:47:01;7.80;;;4.50;;
16033;SDS011;8121;51.418;6.998;2023-05-10T15:57:03;10.10;;;3.90;;
16033;SDS011;8121;51.418;6.998;2023-05-10T16:07:09;6.67;;;5.20;;
16033;SDS011;8121;51.418;6.998;2023-05-10T16:17:20;11.30;;;6.93;;
16033;SDS011;8121;51.418;6.998;2023-05-10T16:27:33;3.40;;;3.10;;
16033;SDS011;8121;51.418;6.998;2023-05-10T16:37:51;1.40;;;1.30;;
16033;SDS011;8121;51.418;6.998;2023-05-10T16:48:05;4.43;;;1.77;;
16033;SDS011;8121;51.418;6.998;2023-05-10T16:58:07;4.77;;;2.17;;
16033;SDS011;8121;51.418;6.998;2023-05-10T17:08:10;2.83;;;2.53;;
16033;SDS011;8121;51.418;6.998;2023-05-10T17:18:11;3.00;;;1.80;;
16033;SDS011;8121;51.418;6.998;2023-05-10T17:28:14;2.70;;;2.10;;
16033;SDS011;8121;51.418;6.998;2023-05-10T17:38:16;1.47;;;1.37;;
16033;SDS011;8121;51.418;6.998;2023-05-10T17:48:18;2.40;;;1.57;;
16033;SDS011;8121;51.418;6.998;2023-05-10T17:58:20;2.90;;;1.80;;
16033;SDS011;8121;51.418;6.998;2023-05-10T18:08:24;1.77;;;1.53;;
16033;SDS011;8121;51.418;6.998;2023-05-10T18:18:27;1.77;;;1.40;;
16033;SDS011;8121;51.418;6.998;2023-05-10T18:28:35;1.90;;;1.80;;
16033;SDS011;8121;51.418;6.998;2023-05-10T18:38:37;3.30;;;2.07;;
16033;SDS011;8121;51.418;6.998;2023-05-10T18:48:40;3.30;;;2.67;;
16033;SDS011;8121;51.418;6.998;2023-05-10T18:58:43;1.93;;;1.80;;
16033;SDS011;8121;51.418;6.998;2023-05-10T19:08:46;5.80;;;3.50;;
16033;SDS011;8121;51.418;6.998;2023-05-10T19:18:48;2.23;;;1.73;;
16033;SDS011;8121;51.418;6.998;2023-05-10T19:28:52;2.33;;;1.90;;
16033;SDS011;8121;51.418;6.998;2023-05-10T19:38:56;2.13;;;2.00;;
16033;SDS011;8121;51.418;6.998;2023-05-10T19:48:59;2.00;;;1.90;;
16033;SDS011;8121;51.418;6.998;2023-05-10T19:59:01;3.20;;;1.37;;
16033;SDS011;8121;51.418;6.998;2023-05-10T20:09:05;3.00;;;2.60;;
16033;SDS011;8121;51.418;6.998;2023-05-10T20:19:07;3.37;;;3.10;;
16033;SDS011;8121;51.418;6.998;2023-05-10T20:29:11;4.70;;;2.70;;
16033;SDS011;8121;51.418;6.998;2023-05-10T20:39:17;4.00;;;3.70;;
16033;SDS011;8121;51.418;6.998;2023-05-10T20:49:21;6.07;;;3.70;;
16033;SDS011;8121;51.418;6.998;2023-05-10T20:59:29;4.83;;;4.10;;
16033;SDS011;8121;51.418;6.998;2023-05-10T21:09:32;3.50;;;3.23;;
16033;SDS011;8121;51.418;6.998;2023-05-10T21:19:34;3.57;;;3.27;;
16033;SDS011;8121;51.418;6.998;2023-05-10T21:29:38;3.57;;;2.90;;
16033;SDS011;8121;51.418;6.998;2023-05-10T21:39:40;7.73;;;3.80;;
16033;SDS011;8121;51.418;6.998;2023-05-10T21:49:44;5.00;;;4.03;;
16033;SDS011;8121;51.418;6.998;2023-05-10T21:59:46;4.90;;;4.40;;
16033;SDS011;8121;51.418;6.998;2023-05-10T22:09:50;6.30;;;4.50;;
16033;SDS011;8121;51.418;6.998;2023-05-10T22:19:53;5.97;;;5.30;;
16033;SDS011;8121;51.418;6.998;2023-05-10T22:29:57;9.33;;;5.87;;
16033;SDS011;8121;51.418;6.998;2023-05-10T22:39:59;4.77;;;4.20;;
16033;SDS011;8121;51.418;6.998;2023-05-10T22:50:02;7.23;;;5.27;;
16033;SDS011;8121;51.418;6.998;2023-05-10T23:00:04;6.30;;;4.97;;
16033;SDS011;8121;51.418;6.998;2023-05-10T23:10:08;8.73;;;5.70;;
16033;SDS011;8121;51.418;6.998;2023-05-10T23:20:11;6.70;;;4.80;;
16033;SDS011;8121;51.418;6.998;2023-05-10T23:30:14;7.07;;;5.73;;
16033;SDS011;8121;51.418;6.998;2023-05-10T23:40:16;9.70;;;6.30;;
16033;SDS011;8121;51.418;6.998;2023-05-10T23:50:19;16.27;;;8.80;;
